createdAt,value
2018-05-11T00:01:11.932Z,11.80
2018-05-11T00:03:40.196Z,11.70
2018-05-11T00:06:07.663Z,11.70
2018-05-11T00:08:35.143Z,11.80
2018-05-11T00:11:02.635Z,11.70
2018-05-11T00:13:30.134Z,11.60
2018-05-11T00:15:57.612Z,11.50
2018-05-11T00:18:25.088Z,11.40
2018-05-11T00:20:52.558Z,11.40
2018-05-11T00:23:20.099Z,11.30
2018-05-11T00:25:47.548Z,11.30
2018-05-11T00:28:15.029Z,11.20
2018-05-11T00:30:42.610Z,11.10
2018-05-11T00:33:10.135Z,11.10
2018-05-11T00:35:37.615Z,11.10
2018-05-11T00:38:05.084Z,11.10
2018-05-11T00:40:32.592Z,11.10
2018-05-11T00:43:00.843Z,11.20
2018-05-11T00:45:28.319Z,11.10
2018-05-11T00:47:55.796Z,11.20
2018-05-11T00:50:23.270Z,11.20
2018-05-11T00:52:50.738Z,11.20
2018-05-11T00:55:30.824Z,11.20
2018-05-11T00:57:58.322Z,11.20
2018-05-11T01:00:25.804Z,11.30
2018-05-11T01:02:54.035Z,11.40
2018-05-11T01:05:21.515Z,11.30
2018-05-11T01:07:48.984Z,11.40
2018-05-11T01:10:17.239Z,11.30
2018-05-11T01:12:44.847Z,11.30
2018-05-11T01:15:12.904Z,11.40
2018-05-11T01:17:40.370Z,11.30
2018-05-11T01:20:07.863Z,11.40
2018-05-11T01:22:35.339Z,11.30
2018-05-11T01:25:02.815Z,11.30
2018-05-11T01:27:30.298Z,11.30
2018-05-11T01:29:57.767Z,11.30
2018-05-11T01:32:25.250Z,11.30
2018-05-11T01:34:52.714Z,11.30
2018-05-11T01:37:20.966Z,11.30
2018-05-11T01:39:49.728Z,11.30
2018-05-11T01:42:17.158Z,11.30
2018-05-11T01:44:44.667Z,11.30
2018-05-11T01:47:12.157Z,11.20
2018-05-11T01:49:39.622Z,11.20
2018-05-11T01:52:07.099Z,11.20
2018-05-11T01:54:34.571Z,11.20
2018-05-11T01:57:02.086Z,11.20
2018-05-11T01:59:29.586Z,11.20
2018-05-11T02:01:57.058Z,11.20
2018-05-11T02:04:24.943Z,11.10
2018-05-11T02:06:52.406Z,11.10
2018-05-11T02:09:19.886Z,11.20
2018-05-11T02:11:47.405Z,11.10
2018-05-11T02:14:14.899Z,11.10
2018-05-11T02:16:42.407Z,11.10
2018-05-11T02:19:09.883Z,11.10
2018-05-11T02:21:37.360Z,11.00
2018-05-11T02:24:04.836Z,11.00
2018-05-11T02:26:32.319Z,11.00
2018-05-11T02:28:59.785Z,11.00
2018-05-11T02:31:27.254Z,11.00
2018-05-11T02:33:54.739Z,11.00
2018-05-11T02:36:22.202Z,10.90
2018-05-11T02:38:49.679Z,11.00
2018-05-11T02:41:17.150Z,11.00
2018-05-11T02:43:45.405Z,10.90
2018-05-11T02:46:12.911Z,10.80
2018-05-11T02:48:41.174Z,10.80
2018-05-11T02:51:08.651Z,10.80
2018-05-11T02:53:36.113Z,10.90
2018-05-11T02:56:03.599Z,10.90
2018-05-11T02:58:31.084Z,10.90
2018-05-11T03:00:58.571Z,10.90
2018-05-11T03:03:26.035Z,10.90
2018-05-11T03:05:54.270Z,10.90
2018-05-11T03:08:21.748Z,10.80
2018-05-11T03:10:49.223Z,10.80
2018-05-11T03:13:16.707Z,10.80
2018-05-11T03:15:44.198Z,10.80
2018-05-11T03:18:11.819Z,10.80
2018-05-11T03:20:40.098Z,10.70
2018-05-11T03:23:07.562Z,10.70
2018-05-11T03:25:35.043Z,10.70
2018-05-11T03:28:02.534Z,10.60
2018-05-11T03:30:30.011Z,10.60
2018-05-11T03:32:57.482Z,10.50
2018-05-11T03:35:25.715Z,10.40
2018-05-11T03:37:53.191Z,10.40
2018-05-11T03:40:20.653Z,10.30
2018-05-11T03:42:48.166Z,10.30
2018-05-11T03:45:15.658Z,10.20
2018-05-11T03:47:43.173Z,10.20
2018-05-11T03:50:10.655Z,10.20
2018-05-11T03:52:38.130Z,10.10
2018-05-11T03:55:05.593Z,10.10
2018-05-11T03:57:33.102Z,10.20
2018-05-11T04:00:00.589Z,10.30
2018-05-11T04:02:39.790Z,10.30
2018-05-11T04:05:30.766Z,10.60
2018-05-11T04:08:10.110Z,10.60
2018-05-11T04:10:37.517Z,10.70
2018-05-11T04:13:05.024Z,10.70
2018-05-11T04:15:32.486Z,10.70
2018-05-11T04:17:59.987Z,10.80
2018-05-11T04:20:27.454Z,11.00
2018-05-11T04:22:54.935Z,11.00
2018-05-11T04:25:22.407Z,11.10
2018-05-11T04:27:49.935Z,11.10
2018-05-11T04:30:18.253Z,11.30
2018-05-11T04:32:46.434Z,11.30
2018-05-11T04:35:14.674Z,11.40
2018-05-11T04:37:42.166Z,11.40
2018-05-11T04:40:09.645Z,11.70
2018-05-11T04:42:37.118Z,11.80
2018-05-11T04:45:04.594Z,11.90
2018-05-11T04:47:32.897Z,11.90
2018-05-11T04:50:01.127Z,12.10
2018-05-11T04:52:28.586Z,12.00
2018-05-11T04:54:56.085Z,12.10
2018-05-11T04:57:23.542Z,12.00
2018-05-11T04:59:51.029Z,11.90
2018-05-11T05:02:18.507Z,11.90
2018-05-11T05:04:45.985Z,12.00
2018-05-11T05:07:14.315Z,12.20
2018-05-11T05:09:41.792Z,12.20
2018-05-11T05:12:09.258Z,12.40
2018-05-11T05:14:36.740Z,12.40
2018-05-11T05:17:04.210Z,12.60
2018-05-11T05:19:31.691Z,12.80
2018-05-11T05:21:59.311Z,12.50
2018-05-11T05:24:28.398Z,12.10
2018-05-11T05:26:55.874Z,12.10
2018-05-11T05:29:23.358Z,12.10
2018-05-11T05:31:51.590Z,12.10
2018-05-11T05:34:19.813Z,12.10
2018-05-11T05:36:47.323Z,12.10
2018-05-11T05:39:15.994Z,12.40
2018-05-11T05:41:44.199Z,12.50
2018-05-11T05:44:11.850Z,12.40
2018-05-11T05:46:39.331Z,12.40
2018-05-11T05:49:06.789Z,12.30
2018-05-11T05:51:34.279Z,12.30
2018-05-11T05:54:02.528Z,12.50
2018-05-11T05:56:30.008Z,12.40
2018-05-11T05:58:58.022Z,12.30
2018-05-11T06:01:26.263Z,12.50
2018-05-11T06:03:53.727Z,12.40
2018-05-11T06:06:21.229Z,12.40
2018-05-11T06:08:48.705Z,12.40
2018-05-11T06:11:16.231Z,12.80
2018-05-11T06:13:43.762Z,13.10
2018-05-11T06:16:11.238Z,13.30
2018-05-11T06:18:38.719Z,13.40
2018-05-11T06:21:06.188Z,12.80
2018-05-11T06:23:33.663Z,12.60
2018-05-11T06:26:01.147Z,12.80
2018-05-11T06:28:28.622Z,12.70
2018-05-11T06:30:56.107Z,12.70
2018-05-11T06:33:23.965Z,13.10
2018-05-11T06:35:51.423Z,13.40
2018-05-11T06:38:18.915Z,13.60
2018-05-11T06:40:46.399Z,13.70
2018-05-11T06:43:13.875Z,13.80
2018-05-11T06:45:41.339Z,13.60
2018-05-11T06:48:08.818Z,13.20
2018-05-11T06:50:36.295Z,12.80
2018-05-11T06:53:03.771Z,12.90
2018-05-11T06:55:31.233Z,13.40
2018-05-11T06:57:58.739Z,13.40
2018-05-11T07:00:26.211Z,13.80
2018-05-11T07:02:53.686Z,14.00
2018-05-11T07:05:21.158Z,14.20
2018-05-11T07:07:49.470Z,14.20
2018-05-11T07:10:16.857Z,14.20
2018-05-11T07:12:45.107Z,14.70
2018-05-11T07:15:12.581Z,14.70
2018-05-11T07:17:40.060Z,14.80
2018-05-11T07:20:07.530Z,14.30
2018-05-11T07:22:35.083Z,14.20
2018-05-11T07:25:02.545Z,14.70
2018-05-11T07:27:30.046Z,15.00
2018-05-11T07:29:58.288Z,15.20
2018-05-11T07:32:25.757Z,15.10
2018-05-11T07:34:53.278Z,14.50
2018-05-11T07:37:21.478Z,15.10
2018-05-11T07:39:48.962Z,15.00
2018-05-11T07:42:16.454Z,15.30
2018-05-11T07:44:43.947Z,15.80
2018-05-11T07:47:11.419Z,15.40
2018-05-11T07:49:38.907Z,15.40
2018-05-11T07:52:06.377Z,15.70
2018-05-11T07:54:34.575Z,16.10
2018-05-11T07:57:02.049Z,16.40
2018-05-11T07:59:29.530Z,16.30
2018-05-11T08:01:57.007Z,16.20
2018-05-11T08:04:25.258Z,16.20
2018-05-11T08:06:52.726Z,16.20
2018-05-11T08:09:20.210Z,15.90
2018-05-11T08:11:47.700Z,16.40
2018-05-11T08:14:15.281Z,15.60
2018-05-11T08:16:42.675Z,15.90
2018-05-11T08:19:10.142Z,16.20
2018-05-11T08:21:38.390Z,15.90
2018-05-11T08:24:05.859Z,15.90
2018-05-11T08:26:33.377Z,16.80
2018-05-11T08:29:00.824Z,16.60
2018-05-11T08:31:28.311Z,17.60
2018-05-11T08:33:55.779Z,16.90
2018-05-11T08:36:24.031Z,18.00
2018-05-11T08:38:51.540Z,18.00
2018-05-11T08:41:19.785Z,17.50
2018-05-11T08:43:48.019Z,16.20
2018-05-11T08:46:15.502Z,16.20
2018-05-11T08:48:42.997Z,16.10
2018-05-11T08:51:10.575Z,15.10
2018-05-11T08:53:38.046Z,15.50
2018-05-11T08:56:05.526Z,16.20
2018-05-11T08:58:32.999Z,16.90
2018-05-11T09:01:00.503Z,16.40
2018-05-11T09:03:27.982Z,16.60
2018-05-11T09:05:55.472Z,17.30
2018-05-11T09:08:22.940Z,17.50
2018-05-11T09:10:50.420Z,18.00
2018-05-11T09:13:18.662Z,17.70
2018-05-11T09:15:46.147Z,17.70
2018-05-11T09:18:13.660Z,17.60
2018-05-11T09:20:42.644Z,18.30
2018-05-11T09:23:10.138Z,18.30
2018-05-11T09:25:38.378Z,16.70
2018-05-11T09:28:05.876Z,16.70
2018-05-11T09:30:34.106Z,16.60
2018-05-11T09:33:01.594Z,16.60
2018-05-11T09:35:29.061Z,17.50
2018-05-11T09:37:57.311Z,17.10
2018-05-11T09:40:24.784Z,17.10
2018-05-11T09:42:52.262Z,16.70
2018-05-11T09:45:19.739Z,16.60
2018-05-11T09:47:47.989Z,17.30
2018-05-11T09:50:15.482Z,17.30
2018-05-11T09:52:43.045Z,17.80
2018-05-11T09:55:10.578Z,18.00
2018-05-11T09:57:38.004Z,18.20
2018-05-11T10:00:05.478Z,18.70
2018-05-11T10:02:32.965Z,18.40
2018-05-11T10:05:00.463Z,18.00
2018-05-11T10:07:27.968Z,18.90
2018-05-11T10:09:55.447Z,16.80
2018-05-11T10:12:22.931Z,16.50
2018-05-11T10:14:50.397Z,16.80
2018-05-11T10:17:17.897Z,18.00
2018-05-11T10:19:45.409Z,17.60
2018-05-11T10:22:13.878Z,18.50
2018-05-11T10:24:41.927Z,20.00
2018-05-11T10:27:09.394Z,20.00
2018-05-11T10:29:36.878Z,19.60
2018-05-11T10:32:04.346Z,20.00
2018-05-11T10:34:31.850Z,19.90
2018-05-11T10:36:59.305Z,21.60
2018-05-11T10:39:26.802Z,20.80
2018-05-11T10:42:04.235Z,20.20
2018-05-11T10:44:31.731Z,20.30
2018-05-11T10:46:59.207Z,22.50
2018-05-11T10:49:26.728Z,23.40
2018-05-11T10:51:54.202Z,24.50
2018-05-11T10:54:21.666Z,24.20
2018-05-11T10:56:49.147Z,23.40
2018-05-11T10:59:16.631Z,21.20
2018-05-11T11:01:44.110Z,19.80
2018-05-11T11:04:11.583Z,21.30
2018-05-11T11:06:45.671Z,23.40
2018-05-11T11:09:13.151Z,23.70
2018-05-11T11:11:40.635Z,24.80
2018-05-11T11:14:08.106Z,24.90
2018-05-11T11:16:35.592Z,25.70
2018-05-11T11:19:03.053Z,25.70
2018-05-11T11:21:30.531Z,27.70
2018-05-11T11:23:58.763Z,26.30
2018-05-11T11:26:26.250Z,26.30
2018-05-11T11:28:53.726Z,26.80
2018-05-11T11:31:21.211Z,26.60
2018-05-11T11:34:09.094Z,23.40
2018-05-11T11:36:36.563Z,21.30
2018-05-11T11:39:04.043Z,21.40
2018-05-11T11:41:31.531Z,21.70
2018-05-11T11:43:59.047Z,23.90
2018-05-11T11:46:26.567Z,24.80
2018-05-11T11:48:54.857Z,26.20
2018-05-11T11:51:22.363Z,26.20
2018-05-11T11:53:50.688Z,27.30
2018-05-11T11:56:18.270Z,27.20
2018-05-11T11:58:45.764Z,26.90
2018-05-11T12:01:13.276Z,28.20
2018-05-11T12:03:42.316Z,25.90
2018-05-11T12:06:09.847Z,26.30
2018-05-11T12:08:37.377Z,26.20
2018-05-11T12:11:04.893Z,25.70
2018-05-11T12:16:36.252Z,22.70
2018-05-11T12:19:03.759Z,25.50
2018-05-11T12:21:31.284Z,23.40
2018-05-11T12:23:58.812Z,25.10
2018-05-11T12:26:26.380Z,26.80
2018-05-11T12:28:53.875Z,25.20
2018-05-11T12:31:21.436Z,26.40
2018-05-11T12:33:49.179Z,25.40
2018-05-11T12:39:33.739Z,25.10
2018-05-11T12:42:01.231Z,26.00
2018-05-11T12:44:28.809Z,28.00
2018-05-11T12:46:56.316Z,28.70
2018-05-11T12:49:23.806Z,29.50
2018-05-11T12:51:52.108Z,30.90
2018-05-11T12:54:20.377Z,31.30
2018-05-11T12:56:47.880Z,31.30
2018-05-11T12:59:15.404Z,31.90
2018-05-11T13:01:42.956Z,29.50
2018-05-11T13:04:10.446Z,31.00
2018-05-11T13:06:37.981Z,31.20
2018-05-11T13:09:05.490Z,31.30
2018-05-11T13:11:33.047Z,28.50
2018-05-11T13:14:00.552Z,29.40
2018-05-11T13:16:39.087Z,28.40
2018-05-11T13:19:06.609Z,27.70
2018-05-11T13:21:34.140Z,23.60
2018-05-11T13:24:02.428Z,25.30
2018-05-11T13:26:30.004Z,25.20
2018-05-11T13:28:57.499Z,25.20
2018-05-11T13:31:32.547Z,25.50
2018-05-11T13:34:00.110Z,26.70
2018-05-11T13:36:27.711Z,27.30
2018-05-11T13:38:55.148Z,25.70
2018-05-11T13:41:22.655Z,25.80
2018-05-11T13:43:57.282Z,24.40
2018-05-11T13:46:24.779Z,24.40
2018-05-11T13:48:52.297Z,24.80
2018-05-11T13:51:19.860Z,26.60
2018-05-11T13:53:47.436Z,28.90
2018-05-11T13:56:15.081Z,26.20
2018-05-11T13:58:44.606Z,25.70
2018-05-11T14:01:12.115Z,23.90
2018-05-11T14:03:39.708Z,25.40
2018-05-11T14:06:07.239Z,24.80
2018-05-11T14:08:34.759Z,26.50
2018-05-11T14:11:02.278Z,27.90
2018-05-11T14:13:29.805Z,28.20
2018-05-11T14:15:57.333Z,29.30
2018-05-11T14:18:25.616Z,27.00
2018-05-11T14:20:53.129Z,26.90
2018-05-11T14:23:21.446Z,25.00
2018-05-11T14:25:49.804Z,24.70
2018-05-11T14:28:17.327Z,24.70
2018-05-11T14:30:45.632Z,24.50
2018-05-11T14:33:13.195Z,24.50
2018-05-11T14:35:40.770Z,24.20
2018-05-11T14:38:08.288Z,23.80
2018-05-11T14:40:36.570Z,22.40
2018-05-11T14:43:04.080Z,22.40
2018-05-11T14:45:32.382Z,22.90
2018-05-11T14:47:59.898Z,22.90
2018-05-11T14:50:27.455Z,23.80
2018-05-11T14:52:54.975Z,24.00
2018-05-11T14:55:22.588Z,24.10
2018-05-11T14:57:50.112Z,23.80
2018-05-11T15:00:18.456Z,22.10
2018-05-11T15:02:46.011Z,22.10
2018-05-11T15:05:15.419Z,22.00
2018-05-11T15:07:44.523Z,22.10
2018-05-11T15:10:12.072Z,22.10
2018-05-11T15:12:41.309Z,22.60
2018-05-11T15:15:08.830Z,22.50
2018-05-11T15:17:36.352Z,22.10
2018-05-11T15:20:04.613Z,22.70
2018-05-11T15:22:32.900Z,22.60
2018-05-11T15:25:00.403Z,22.60
2018-05-11T15:27:27.936Z,22.70
2018-05-11T15:29:55.419Z,22.60
2018-05-11T15:32:23.711Z,22.40
2018-05-11T15:34:51.248Z,22.40
2018-05-11T15:37:18.852Z,22.50
2018-05-11T15:39:46.455Z,23.00
2018-05-11T15:42:14.787Z,23.40
2018-05-11T15:44:43.125Z,23.80
2018-05-11T15:47:10.708Z,23.80
2018-05-11T15:49:38.305Z,23.90
2018-05-11T15:52:05.865Z,23.60
2018-05-11T15:54:34.163Z,23.40
2018-05-11T15:57:02.473Z,23.10
2018-05-11T15:59:30.751Z,22.50
2018-05-11T16:01:58.280Z,22.50
2018-05-11T16:04:25.790Z,21.80
2018-05-11T16:06:53.314Z,22.20
2018-05-11T16:09:20.903Z,22.40
2018-05-11T16:11:49.320Z,22.10
2018-05-11T16:14:16.994Z,22.10
2018-05-11T16:16:44.579Z,22.40
2018-05-11T16:19:12.930Z,22.40
2018-05-11T16:21:40.503Z,22.40
2018-05-11T16:24:08.016Z,22.50
2018-05-11T16:26:35.540Z,22.10
2018-05-11T16:29:03.066Z,21.90
2018-05-11T16:31:30.588Z,21.60
2018-05-11T16:33:58.112Z,21.40
2018-05-11T16:36:25.700Z,21.60
2018-05-11T16:38:53.219Z,21.50
2018-05-11T16:41:20.838Z,21.60
2018-05-11T16:43:48.376Z,21.80
2018-05-11T16:46:16.244Z,21.30
2018-05-11T16:48:43.948Z,21.30
2018-05-11T16:51:11.586Z,21.50
2018-05-11T16:53:39.795Z,21.70
2018-05-11T16:56:07.323Z,21.60
2018-05-11T16:58:36.430Z,21.70
2018-05-11T17:01:03.928Z,21.70
2018-05-11T17:03:31.423Z,21.70
2018-05-11T17:05:59.091Z,21.40
2018-05-11T17:08:26.575Z,21.30
2018-05-11T17:10:54.086Z,21.00
2018-05-11T17:13:21.617Z,20.90
2018-05-11T17:15:49.928Z,20.70
2018-05-11T17:18:17.522Z,20.70
2018-05-11T17:20:45.088Z,20.60
2018-05-11T17:23:12.595Z,20.50
2018-05-11T17:25:40.216Z,20.50
2018-05-11T17:28:10.748Z,20.40
2018-05-11T17:30:38.267Z,20.30
2018-05-11T17:33:06.555Z,20.10
2018-05-11T17:35:34.855Z,20.10
2018-05-11T17:38:02.355Z,20.10
2018-05-11T17:40:30.650Z,19.90
2018-05-11T17:42:58.159Z,19.90
2018-05-11T17:45:25.664Z,19.80
2018-05-11T17:47:53.248Z,19.80
2018-05-11T17:50:21.551Z,19.70
2018-05-11T17:52:49.125Z,19.60
2018-05-11T17:55:18.272Z,19.60
2018-05-11T17:57:45.909Z,19.60
2018-05-11T18:00:13.485Z,19.50
2018-05-11T18:02:41.805Z,19.40
2018-05-11T18:05:09.357Z,19.40
2018-05-11T18:07:36.887Z,19.30
2018-05-11T18:10:04.510Z,19.20
2018-05-11T18:12:32.755Z,18.80
2018-05-11T18:15:00.305Z,18.80
2018-05-11T18:17:27.842Z,18.70
2018-05-11T18:19:55.362Z,18.40
2018-05-11T18:22:22.885Z,18.30
2018-05-11T18:24:50.419Z,18.10
2018-05-11T18:27:18.001Z,18.20
2018-05-11T18:29:45.523Z,18.00
2018-05-11T18:32:13.151Z,17.90
2018-05-11T18:34:40.736Z,17.70
2018-05-11T18:37:08.246Z,17.50
2018-05-11T18:39:35.852Z,17.30
2018-05-11T18:42:03.333Z,17.10
2018-05-11T18:44:30.864Z,16.90
2018-05-11T18:46:59.206Z,16.50
2018-05-11T18:49:26.707Z,16.50
2018-05-11T18:51:54.216Z,16.40
2018-05-11T18:54:22.054Z,16.30
2018-05-11T18:56:49.236Z,16.30
2018-05-11T18:59:16.852Z,16.20
2018-05-11T19:01:44.534Z,16.10
2018-05-11T19:04:11.987Z,15.90
2018-05-11T19:06:40.260Z,15.70
2018-05-11T19:09:07.779Z,15.60
2018-05-11T19:11:35.316Z,15.60
2018-05-11T19:14:02.818Z,15.50
2018-05-11T19:16:30.324Z,15.30
2018-05-11T19:18:57.832Z,15.20
2018-05-11T19:21:25.324Z,15.10
2018-05-11T19:23:52.850Z,15.00
2018-05-11T19:26:20.427Z,14.90
2018-05-11T19:28:47.963Z,14.80
2018-05-11T19:31:15.526Z,14.80
2018-05-11T19:33:43.096Z,14.70
2018-05-11T19:36:10.894Z,14.60
2018-05-11T19:38:40.621Z,14.40
2018-05-11T19:41:08.124Z,14.40
2018-05-11T19:43:35.667Z,14.30
2018-05-11T19:46:03.175Z,14.20
2018-05-11T19:48:30.724Z,14.10
2018-05-11T19:50:58.240Z,14.00
2018-05-11T19:53:26.611Z,13.90
2018-05-11T19:55:54.192Z,13.90
2018-05-11T19:58:21.672Z,13.90
2018-05-11T20:00:49.211Z,13.80
2018-05-11T20:03:16.763Z,13.80
2018-05-11T20:05:44.395Z,13.70
2018-05-11T20:08:12.038Z,13.70
2018-05-11T20:10:39.584Z,13.70
2018-05-11T20:13:07.872Z,13.60
2018-05-11T20:15:35.374Z,13.60
2018-05-11T20:18:02.901Z,13.60
2018-05-11T20:20:30.435Z,13.50
2018-05-11T20:22:57.970Z,13.50
2018-05-11T20:25:25.503Z,13.40
2018-05-11T20:27:53.022Z,13.30
2018-05-11T20:30:20.556Z,13.20
2018-05-11T20:32:49.015Z,13.20
2018-05-11T20:35:16.544Z,13.20
2018-05-11T20:37:44.105Z,13.10
2018-05-11T20:40:14.509Z,13.00
2018-05-11T20:42:42.043Z,13.00
2018-05-11T20:45:09.604Z,12.90
2018-05-11T20:47:37.895Z,12.80
2018-05-11T20:50:05.401Z,12.80
2018-05-11T20:52:32.951Z,12.70
2018-05-11T20:55:00.483Z,12.80
2018-05-11T20:57:27.993Z,12.70
2018-05-11T20:59:55.538Z,12.70
2018-05-11T21:02:23.047Z,12.60
2018-05-11T21:04:50.564Z,12.50
2018-05-11T21:07:18.162Z,12.50
2018-05-11T21:09:45.770Z,12.40
2018-05-11T21:12:13.314Z,12.40
2018-05-11T21:14:40.964Z,12.30
2018-05-11T21:17:09.187Z,12.10
2018-05-11T21:19:36.677Z,12.10
2018-05-11T21:22:04.971Z,12.00
2018-05-11T21:24:32.476Z,12.00
2018-05-11T21:27:00.082Z,12.00
2018-05-11T21:29:27.608Z,11.90
2018-05-11T21:31:55.138Z,11.80
2018-05-11T21:34:23.415Z,11.80
2018-05-11T21:36:51.029Z,11.70
2018-05-11T21:39:19.304Z,11.60
2018-05-11T21:41:46.899Z,11.60
2018-05-11T21:44:14.487Z,11.70
2018-05-11T21:46:43.084Z,11.70
2018-05-11T21:49:10.625Z,11.60
2018-05-11T21:51:38.985Z,11.60
2018-05-11T21:54:06.523Z,11.60
2018-05-11T21:56:34.059Z,11.60
2018-05-11T21:59:01.612Z,11.50
2018-05-11T22:01:29.155Z,11.50
2018-05-11T22:03:57.458Z,11.40
2018-05-11T22:06:24.960Z,11.30
2018-05-11T22:08:52.499Z,11.30
2018-05-11T22:11:20.008Z,11.30
2018-05-11T22:13:47.532Z,11.40
2018-05-11T22:16:15.100Z,11.40
2018-05-11T22:18:42.627Z,11.40
2018-05-11T22:21:10.156Z,11.40
2018-05-11T22:23:38.435Z,11.40
2018-05-11T22:26:05.952Z,11.40
2018-05-11T22:28:33.507Z,11.30
2018-05-11T22:31:01.782Z,11.30
2018-05-11T22:33:29.287Z,11.20
2018-05-11T22:35:56.803Z,11.20
2018-05-11T22:38:24.292Z,11.10
2018-05-11T22:40:51.790Z,11.00
2018-05-11T22:43:19.295Z,10.90
2018-05-11T22:45:46.823Z,10.90
2018-05-11T22:48:14.327Z,10.90
2018-05-11T22:50:41.831Z,10.90
2018-05-11T22:53:09.350Z,10.80
2018-05-11T22:55:36.838Z,10.90
2018-05-11T22:58:04.358Z,10.80
2018-05-11T23:00:37.607Z,10.70
2018-05-11T23:03:05.106Z,10.60
2018-05-11T23:05:32.675Z,10.60
2018-05-11T23:08:00.236Z,10.60
2018-05-11T23:10:28.515Z,10.50
2018-05-11T23:12:56.062Z,10.50
2018-05-11T23:15:23.615Z,10.60
2018-05-11T23:17:51.903Z,10.60
2018-05-11T23:20:20.157Z,10.60
2018-05-11T23:22:47.731Z,10.60
2018-05-11T23:25:15.368Z,10.50
2018-05-11T23:27:44.589Z,10.40
2018-05-11T23:30:12.021Z,10.40
2018-05-11T23:32:39.557Z,10.40
2018-05-11T23:35:07.089Z,10.40
2018-05-11T23:37:34.623Z,10.40
2018-05-11T23:40:02.164Z,10.50
2018-05-11T23:42:29.666Z,10.40
2018-05-11T23:44:57.164Z,10.40
2018-05-11T23:47:24.704Z,10.30
2018-05-11T23:49:52.295Z,10.30
2018-05-11T23:52:19.776Z,10.20
2018-05-11T23:54:47.298Z,10.10
2018-05-11T23:57:14.897Z,10.10
2018-05-11T23:59:42.437Z,10.10
